Time;durP1;ratioP1;P1;durP2;ratioP2;P2;SDS_P1;SDS_P2;PMS_P1;PMS_P2;Temp;Humidity;BMP_temperature;BMP_pressure;BME280_temperature;BME280_humidity;BME280_pressure;Samples;Min_cycle;Max_cycle;Signal;HPM_P1;HPM_P2
2022/10/29 00:02:19;;;;;;;7.73;5.07;;;;;;;13.00;64.28;95784.53;4899808;29;20268;-84
2022/10/29 00:04:46;;;;;;;8.20;5.40;;;;;;;12.95;64.32;95783.28;4899766;29;20279;-83
2022/10/29 00:07:13;;;;;;;5.80;5.17;;;;;;;12.86;64.47;95766.06;4899797;29;20196;-86
2022/10/29 00:09:39;;;;;;;7.47;5.53;;;;;;;12.95;64.43;95775.56;4898816;29;20199;-86
2022/10/29 00:12:08;;;;;;;7.00;4.70;;;;;;;12.88;64.36;95770.13;4898599;29;20199;-87
2022/10/29 00:14:35;;;;;;;8.17;4.97;;;;;;;12.90;64.63;95775.13;4898759;29;20239;-84
2022/10/29 00:17:02;;;;;;;6.83;5.03;;;;;;;12.89;64.62;95779.47;4900968;29;20660;-85
2022/10/29 00:19:29;;;;;;;5.90;4.73;;;;;;;12.84;64.59;95760.25;4902299;29;20197;-83
2022/10/29 00:21:56;;;;;;;6.93;5.53;;;;;;;12.86;64.72;95769.44;4913392;29;20204;-86
2022/10/29 00:24:22;;;;;;;8.27;5.60;;;;;;;12.84;64.75;95767.94;4905272;29;20675;-83
2022/10/29 00:26:49;;;;;;;7.60;4.80;;;;;;;12.81;64.72;95772.38;4903913;29;20201;-83
2022/10/29 00:29:17;;;;;;;6.83;5.17;;;;;;;12.80;64.75;95768.19;4912012;29;20662;-81
2022/10/29 00:31:44;;;;;;;6.33;5.13;;;;;;;12.78;64.73;95767.50;4903847;29;20192;-81
2022/10/29 00:34:11;;;;;;;5.90;4.83;;;;;;;12.76;64.99;95769.38;4903144;29;20220;-81
2022/10/29 00:36:38;;;;;;;9.17;5.43;;;;;;;12.71;64.93;95756.09;4911659;29;20199;-82
2022/10/29 00:39:05;;;;;;;6.87;5.17;;;;;;;12.73;65.04;95758.53;4922395;29;20191;-82
2022/10/29 00:41:31;;;;;;;7.83;5.00;;;;;;;12.71;65.06;95757.88;4925082;29;20247;-81
2022/10/29 00:44:31;;;;;;;6.20;5.00;;;;;;;12.69;65.16;95757.16;4922985;29;20203;-81
2022/10/29 00:47:03;;;;;;;6.40;4.77;;;;;;;12.68;65.12;95763.22;4920310;29;20676;-84
2022/10/29 00:49:33;;;;;;;6.87;4.73;;;;;;;12.66;65.19;95765.94;4917520;29;20204;-83
2022/10/29 00:52:02;;;;;;;8.03;5.40;;;;;;;12.42;65.37;95719.97;4919061;29;20195;-83
2022/10/29 00:54:31;;;;;;;5.33;4.20;;;;;;;12.58;65.22;95747.78;4920783;29;20582;-83
2022/10/29 00:57:03;;;;;;;7.87;5.10;;;;;;;12.38;65.22;95725.47;4922004;29;20200;-83
2022/10/29 00:59:32;;;;;;;7.17;5.20;;;;;;;12.60;65.32;95763.03;4915437;29;20195;-83
2022/10/29 01:01:59;;;;;;;5.67;4.77;;;;;;;12.45;65.58;95739.44;4916932;29;20200;-82
2022/10/29 01:04:27;;;;;;;8.63;4.97;;;;;;;12.55;65.42;95759.09;4919560;29;20198;-84
2022/10/29 01:06:54;;;;;;;6.97;4.93;;;;;;;12.38;65.53;95726.28;4905460;29;20570;-84
2022/10/29 01:09:21;;;;;;;7.47;4.50;;;;;;;12.55;65.53;95748.81;4900807;29;20234;-85
2022/10/29 01:12:01;;;;;;;7.57;4.70;;;;;;;12.53;65.50;95745.56;4900196;29;20279;-84
2022/10/29 01:14:41;;;;;;;7.33;4.83;;;;;;;12.51;65.51;95749.19;4899328;29;20228;-84
2022/10/29 01:17:15;;;;;;;6.83;4.73;;;;;;;12.36;65.80;95710.22;4899015;29;20207;-84
2022/10/29 01:20:10;;;;;;;6.87;4.57;;;;;;;12.42;65.68;95719.16;4899171;29;20211;-82
2022/10/29 01:22:43;;;;;;;6.03;5.00;;;;;;;12.44;65.53;95730.13;4898779;29;20200;-82
2022/10/29 01:25:32;;;;;;;7.07;5.40;;;;;;;12.42;65.75;95727.66;4898664;29;20662;-80
2022/10/29 01:28:10;;;;;;;7.43;5.10;;;;;;;12.40;65.70;95724.41;4880104;29;20197;-86
2022/10/29 01:31:09;;;;;;;6.60;4.20;;;;;;;12.40;65.75;95723.59;4880808;29;20204;-85
2022/10/29 01:33:42;;;;;;;6.70;4.90;;;;;;;12.38;65.72;95726.28;4880226;29;20197;-83
2022/10/29 01:36:17;;;;;;;7.43;5.77;;;;;;;12.37;65.88;95728.97;4904027;29;20196;-83
2022/10/29 01:38:52;;;;;;;6.73;4.73;;;;;;;12.29;65.85;95721.88;4917344;29;20199;-85
2022/10/29 01:41:25;;;;;;;5.93;5.23;;;;;;;12.27;65.77;95721.22;4916985;29;20223;-85
2022/10/29 01:43:59;;;;;;;7.97;5.07;;;;;;;12.33;65.91;95730.97;4917585;29;20218;-85
2022/10/29 01:46:33;;;;;;;9.70;4.87;;;;;;;12.18;65.92;95699.69;4917236;29;20199;-86
2022/10/29 01:49:04;;;;;;;8.40;5.17;;;;;;;12.30;65.93;95721.78;4914570;29;20199;-84
2022/10/29 01:51:34;;;;;;;6.43;4.47;;;;;;;12.24;65.85;95713.75;4898073;29;20676;-84
2022/10/29 01:54:06;;;;;;;9.07;4.83;;;;;;;12.28;65.89;95723.63;4898209;29;20212;-85
2022/10/29 01:56:32;;;;;;;4.03;3.63;;;;;;;12.27;65.67;95713.50;4898667;29;20192;-83
2022/10/29 01:59:01;;;;;;;8.00;4.87;;;;;;;12.27;65.84;95716.06;4897860;29;20201;-85
2022/10/29 02:01:50;;;;;;;6.50;4.20;;;;;;;12.04;65.89;95684.56;4898292;29;20204;-84
2022/10/29 02:04:31;;;;;;;6.07;3.97;;;;;;;12.10;65.82;95698.66;4904054;29;20263;-83
2022/10/29 02:07:04;;;;;;;6.70;3.80;;;;;;;12.22;65.78;95713.88;4879834;29;20189;-82
2022/10/29 02:09:39;;;;;;;6.07;4.30;;;;;;;12.14;65.78;95700.03;4879690;29;20200;-82
2022/10/29 02:12:15;;;;;;;4.53;4.00;;;;;;;12.20;65.65;95710.59;4880019;29;20649;-82
2022/10/29 02:14:48;;;;;;;9.47;4.20;;;;;;;12.15;65.75;95702.47;4879348;29;20224;-84
2022/10/29 02:17:16;;;;;;;4.97;4.23;;;;;;;12.19;65.51;95710.75;4879692;29;20645;-84
2022/10/29 02:19:43;;;;;;;4.03;3.63;;;;;;;12.17;65.68;95708.28;4920734;29;20652;-83
2022/10/29 02:22:10;;;;;;;5.07;3.63;;;;;;;12.10;65.57;95693.53;4926528;29;20203;-83
2022/10/29 02:24:36;;;;;;;5.27;3.43;;;;;;;12.15;65.70;95705.03;4919316;29;20184;-86
2022/10/29 02:27:03;;;;;;;4.87;3.73;;;;;;;12.04;65.66;95692.25;4909028;29;20196;-86
2022/10/29 02:29:30;;;;;;;4.93;3.50;;;;;;;12.02;65.55;95689.81;4899350;29;20811;-86
2022/10/29 02:31:57;;;;;;;5.27;3.70;;;;;;;12.09;65.85;95702.13;4900512;29;20208;-82
2022/10/29 02:34:25;;;;;;;3.87;3.50;;;;;;;12.02;65.77;95692.38;4911365;29;20218;-82
2022/10/29 02:36:52;;;;;;;5.03;3.87;;;;;;;12.10;65.79;95708.91;4921560;29;20196;-84
2022/10/29 02:39:20;;;;;;;4.33;3.83;;;;;;;12.03;65.94;95696.56;4921564;29;20200;-85
2022/10/29 02:41:47;;;;;;;4.33;3.43;;;;;;;12.05;65.86;95701.59;4920636;29;20246;-82
2022/10/29 02:44:13;;;;;;;4.10;3.37;;;;;;;12.00;65.76;95694.25;4919349;29;20199;-83
2022/10/29 02:46:40;;;;;;;4.80;3.83;;;;;;;11.99;65.79;95687.47;4917574;29;20426;-82
2022/10/29 02:49:08;;;;;;;5.10;4.13;;;;;;;11.92;65.70;95686.38;4919569;29;20274;-82
2022/10/29 02:51:36;;;;;;;3.87;3.47;;;;;;;12.00;65.79;95704.53;4920500;29;20206;-82
2022/10/29 02:54:03;;;;;;;3.50;3.20;;;;;;;11.81;65.79;95669.22;4918101;29;20200;-83
2022/10/29 02:56:29;;;;;;;5.40;3.53;;;;;;;11.99;65.97;95694.38;4916197;29;20196;-82
2022/10/29 02:58:56;;;;;;;5.50;3.80;;;;;;;11.98;66.07;95697.88;4916405;29;20195;-85
2022/10/29 03:01:23;;;;;;;6.03;4.60;;;;;;;11.96;66.01;95700.56;4916995;29;20192;-83
2022/10/29 03:03:50;;;;;;;6.87;3.57;;;;;;;11.83;65.87;95681.97;4916825;29;20192;-82
2022/10/29 03:06:18;;;;;;;3.73;3.27;;;;;;;11.92;66.18;95699.19;4915945;29;20664;-82
2022/10/29 03:08:47;;;;;;;4.40;3.73;;;;;;;11.92;66.10;95699.19;4917820;29;20211;-85
2022/10/29 03:11:14;;;;;;;3.80;3.23;;;;;;;11.87;66.18;95690.19;4915983;29;20188;-83
2022/10/29 03:13:41;;;;;;;3.93;3.40;;;;;;;11.85;66.23;95695.47;4913803;29;20294;-82
2022/10/29 03:16:08;;;;;;;5.30;4.13;;;;;;;11.89;66.17;95698.59;4897441;29;20228;-84
2022/10/29 03:18:35;;;;;;;6.60;4.50;;;;;;;11.76;66.37;95678.22;4898277;29;20196;-83
2022/10/29 03:21:02;;;;;;;4.40;4.00;;;;;;;11.80;66.40;95688.09;4898950;29;20196;-82
2022/10/29 03:23:28;;;;;;;8.50;4.27;;;;;;;11.64;66.13;95653.56;4899062;29;20196;-82
2022/10/29 03:25:57;;;;;;;5.80;4.47;;;;;;;11.83;66.12;95687.09;4899793;29;20188;-84
2022/10/29 03:28:26;;;;;;;7.93;4.37;;;;;;;11.84;66.50;95690.47;4897563;29;20203;-83
2022/10/29 03:30:53;;;;;;;6.13;4.17;;;;;;;11.82;66.42;95690.53;4896967;29;20291;-86
2022/10/29 03:33:20;;;;;;;7.83;4.60;;;;;;;11.77;66.32;95683.22;4907375;29;20196;-85
2022/10/29 03:35:46;;;;;;;5.50;4.33;;;;;;;11.68;66.35;95665.19;4915882;29;20228;-84
2022/10/29 03:38:13;;;;;;;6.00;4.17;;;;;;;11.78;66.24;95689.94;4896627;29;20200;-87
2022/10/29 03:40:40;;;;;;;8.77;4.57;;;;;;;11.71;66.19;95670.88;4897330;29;20261;-82
2022/10/29 03:43:08;;;;;;;4.60;4.00;;;;;;;11.67;66.36;95666.94;4900122;29;20204;-81
2022/10/29 03:45:35;;;;;;;6.77;4.73;;;;;;;11.62;66.57;95661.38;4901110;29;20197;-85
2022/10/29 03:48:04;;;;;;;6.73;4.83;;;;;;;11.73;66.51;95675.88;4897672;29;20193;-86
2022/10/29 03:50:31;;;;;;;6.67;4.33;;;;;;;11.71;66.44;95675.22;4896565;29;20690;-82
2022/10/29 03:52:57;;;;;;;8.50;5.37;;;;;;;11.71;66.57;95682.88;4896636;29;20237;-83
2022/10/29 03:55:24;;;;;;;4.80;4.30;;;;;;;11.70;66.53;95682.09;4896360;29;20604;-86
2022/10/29 03:57:51;;;;;;;6.40;4.20;;;;;;;11.67;66.49;95682.31;4896312;29;20204;-88
2022/10/29 04:00:19;;;;;;;6.97;4.70;;;;;;;11.67;66.48;95679.75;4896110;29;20211;-83
2022/10/29 04:02:46;;;;;;;7.20;4.60;;;;;;;11.65;66.45;95686.72;4906508;29;20199;-82
2022/10/29 04:05:13;;;;;;;6.03;4.60;;;;;;;11.64;66.74;95685.09;4914895;29;20204;-88
2022/10/29 04:07:40;;;;;;;7.60;4.97;;;;;;;11.56;66.88;95678.00;4915696;29;20203;-85
2022/10/29 04:10:07;;;;;;;5.63;4.70;;;;;;;11.56;66.82;95677.19;4914613;29;20196;-84
2022/10/29 04:12:34;;;;;;;8.50;4.40;;;;;;;11.50;66.80;95670.00;4914982;29;20206;-87
2022/10/29 04:15:01;;;;;;;9.90;5.30;;;;;;;11.59;66.83;95686.41;4915325;29;20223;-83
2022/10/29 04:17:29;;;;;;;7.83;4.67;;;;;;;11.38;66.83;95658.13;4916133;29;20196;-87
2022/10/29 04:19:58;;;;;;;6.17;4.63;;;;;;;11.54;66.91;95681.63;4923142;29;20196;-85
2022/10/29 04:22:25;;;;;;;7.70;4.40;;;;;;;11.49;66.87;95686.31;4916198;29;20206;-84
2022/10/29 04:24:52;;;;;;;5.40;4.60;;;;;;;11.33;66.76;95668.75;4915011;29;20623;-83
2022/10/29 04:27:19;;;;;;;8.13;4.70;;;;;;;11.45;66.97;95683.16;4916384;29;20202;-83
2022/10/29 04:29:46;;;;;;;4.80;4.30;;;;;;;11.47;66.91;95691.53;4915915;29;20188;-85
2022/10/29 04:32:12;;;;;;;6.73;4.80;;;;;;;11.51;67.01;95700.63;4895342;29;20196;-84
2022/10/29 04:34:40;;;;;;;6.63;4.43;;;;;;;11.50;66.97;95703.31;4895513;29;20303;-82
2022/10/29 04:37:07;;;;;;;6.20;4.20;;;;;;;11.22;67.00;95666.19;4898475;29;20200;-83
2022/10/29 04:39:34;;;;;;;6.73;4.87;;;;;;;11.39;66.99;95695.63;4901738;29;20679;-81
2022/10/29 04:42:01;;;;;;;5.37;4.43;;;;;;;11.41;66.91;95698.91;4901415;29;20243;-83
2022/10/29 04:44:28;;;;;;;7.93;5.53;;;;;;;11.45;67.13;95708.78;4901464;29;20204;-83
2022/10/29 04:46:54;;;;;;;5.83;4.67;;;;;;;11.43;67.16;95707.25;4919291;29;20199;-84
2022/10/29 04:49:21;;;;;;;7.87;5.10;;;;;;;11.41;67.12;95707.38;4920726;29;20198;-82
2022/10/29 04:51:49;;;;;;;8.27;5.07;;;;;;;11.41;67.34;95709.94;4920564;29;20203;-83
2022/10/29 04:54:16;;;;;;;7.93;5.17;;;;;;;11.40;66.89;95708.31;4912780;29;20200;-83
2022/10/29 04:56:43;;;;;;;5.37;4.70;;;;;;;11.34;67.30;95703.66;4901765;29;20236;-82
2022/10/29 04:59:10;;;;;;;8.00;4.37;;;;;;;11.14;67.36;95666.78;4902273;29;20196;-83
2022/10/29 05:01:37;;;;;;;6.67;4.50;;;;;;;11.39;67.23;95708.41;4902344;29;20189;-86
2022/10/29 05:04:04;;;;;;;6.87;4.30;;;;;;;11.39;67.15;95700.75;4902389;29;20199;-82
2022/10/29 05:06:30;;;;;;;6.57;4.47;;;;;;;11.39;67.08;95704.13;4902649;29;20208;-83
2022/10/29 05:08:59;;;;;;;5.17;4.67;;;;;;;11.35;67.30;95697.59;4903367;29;20203;-84
2022/10/29 05:11:25;;;;;;;5.73;4.33;;;;;;;11.41;67.16;95704.81;4902469;29;20200;-87
2022/10/29 05:13:52;;;;;;;6.40;4.87;;;;;;;11.38;67.33;95694.00;4901484;29;20196;-86
2022/10/29 05:16:19;;;;;;;7.37;5.20;;;;;;;11.44;67.03;95704.59;4909285;29;20900;-84
2022/10/29 05:18:46;;;;;;;8.03;4.97;;;;;;;11.37;66.97;95689.81;4902518;29;20200;-85
2022/10/29 05:21:13;;;;;;;5.43;4.50;;;;;;;11.48;66.95;95707.72;4901710;29;20203;-84
2022/10/29 05:23:40;;;;;;;6.43;4.80;;;;;;;11.47;66.95;95698.41;4901893;29;20203;-88
2022/10/29 05:26:08;;;;;;;6.07;4.80;;;;;;;11.54;67.15;95704.69;4903544;29;20207;-85
2022/10/29 05:28:35;;;;;;;6.03;4.40;;;;;;;11.53;66.91;95701.31;4914230;29;20187;-82
2022/10/29 05:31:02;;;;;;;8.80;5.63;;;;;;;11.45;66.83;95685.72;4920010;29;20202;-86
2022/10/29 05:33:29;;;;;;;7.60;5.23;;;;;;;11.66;66.90;95710.63;4919509;29;20227;-82
2022/10/29 05:35:55;;;;;;;8.67;4.67;;;;;;;11.70;66.80;95715.41;4918102;29;20223;-80
2022/10/29 05:38:22;;;;;;;8.27;4.90;;;;;;;11.65;66.61;95696.97;4910531;29;20241;-81
2022/10/29 05:40:49;;;;;;;12.20;5.77;;;;;;;11.80;66.63;95713.72;4916661;29;20306;-76
2022/10/29 05:43:18;;;;;;;8.20;5.53;;;;;;;11.86;66.51;95712.47;4918365;29;20191;-81
2022/10/29 05:45:45;;;;;;;8.63;4.20;;;;;;;12.01;85.36;95713.84;4915166;29;20203;-80
2022/10/29 05:48:12;;;;;;;7.80;4.87;;;;;;;12.57;100.00;95725.63;4910206;29;20683;-84
2022/10/29 05:50:39;;;;;;;8.77;5.57;;;;;;;13.12;100.00;95725.41;4899535;29;20200;-83
2022/10/29 05:53:10;;;;;;;9.83;5.50;;;;;;;13.63;100.00;95727.94;4899898;29;20233;-83
2022/10/29 05:55:37;;;;;;;27.43;6.63;;;;;;;14.11;100.00;95711.78;4893185;29;20711;-85
2022/10/29 05:58:06;;;;;;;15.10;5.53;;;;;;;14.58;100.00;95716.28;4892066;29;20386;-89
2022/10/29 06:00:36;;;;;;;11.73;5.50;;;;;;;14.98;100.00;95714.34;4897962;29;20196;-84
2022/10/29 06:03:04;;;;;;;18.73;5.43;;;;;;;15.27;99.88;95708.25;4882031;29;20790;-84
2022/10/29 06:05:31;;;;;;;10.57;5.57;;;;;;;15.48;97.85;95688.22;4890184;29;20215;-86
2022/10/29 06:07:59;;;;;;;19.20;5.67;;;;;;;15.76;95.83;95668.44;4898567;29;20200;-82
2022/10/29 06:10:27;;;;;;;12.30;5.13;;;;;;;16.56;93.73;95723.53;4900186;29;20204;-91
2022/10/29 06:12:54;;;;;;;11.90;5.90;;;;;;;16.89;91.33;95703.16;4898269;29;20683;-83
2022/10/29 06:15:22;;;;;;;16.37;5.47;;;;;;;17.69;89.05;95736.53;4889061;29;20229;-86
2022/10/29 06:17:51;;;;;;;7.33;4.67;;;;;;;18.16;84.91;95731.69;4893480;29;20201;-87
2022/10/29 06:20:20;;;;;;;10.17;5.07;;;;;;;18.56;81.72;95710.19;4889269;29;20208;-91
2022/10/29 06:22:47;;;;;;;8.03;5.13;;;;;;;19.25;78.66;95739.16;4879213;29;20205;-85
2022/10/29 06:25:14;;;;;;;8.70;5.20;;;;;;;19.45;75.79;95703.28;4879332;29;20209;-83
2022/10/29 06:27:41;;;;;;;10.50;5.23;;;;;;;20.15;73.61;95746.63;4877821;29;20204;-87
2022/10/29 06:30:09;;;;;;;12.63;5.20;;;;;;;20.58;71.82;95746.22;4877116;29;20626;-82
2022/10/29 06:32:36;;;;;;;7.87;5.17;;;;;;;20.96;70.11;95734.06;4877953;29;20674;-83
2022/10/29 06:35:04;;;;;;;11.87;5.57;;;;;;;21.37;68.51;95739.69;4878155;29;20204;-82
2022/10/29 06:37:32;;;;;;;11.63;5.23;;;;;;;21.76;67.12;95741.22;4876479;29;20208;-82
2022/10/29 06:39:59;;;;;;;9.80;4.80;;;;;;;21.93;65.71;95711.38;4878638;29;20568;-87
2022/10/29 06:42:25;;;;;;;10.23;6.25;;;;;;;22.42;64.27;95738.59;4878340;29;20259;-90
2022/10/29 06:44:52;;;;;;;14.52;6.15;;;;;;;22.64;62.86;95723.78;4876303;29;20672;-82
2022/10/29 06:47:19;;;;;;;9.32;5.20;;;;;;;23.01;62.28;95736.56;4887728;29;20201;-86
2022/10/29 06:49:46;;;;;;;14.38;5.55;;;;;;;23.26;61.05;95739.53;4880389;29;20222;-83
2022/10/29 06:52:14;;;;;;;15.43;5.18;;;;;;;23.41;59.69;95720.34;4881742;29;20205;-84
2022/10/29 06:54:41;;;;;;;18.65;5.15;;;;;;;23.71;58.98;95745.25;4879130;29;20197;-85
2022/10/29 06:57:08;;;;;;;10.75;5.63;;;;;;;23.92;58.43;95738.28;4878427;29;20237;-83
2022/10/29 06:59:35;;;;;;;16.45;6.28;;;;;;;24.07;57.70;95735.56;4878559;29;20549;-82
2022/10/29 07:02:01;;;;;;;9.15;5.50;;;;;;;24.24;56.72;95739.44;4879068;29;20205;-82
2022/10/29 07:04:28;;;;;;;12.90;5.68;;;;;;;24.28;55.20;95733.59;4890741;29;20637;-90
2022/10/29 07:06:55;;;;;;;18.23;5.97;;;;;;;24.46;54.12;95740.91;4892825;29;20208;-82
2022/10/29 07:09:23;;;;;;;15.45;6.07;;;;;;;24.52;54.18;95736.69;4894697;29;20268;-87
2022/10/29 07:11:50;;;;;;;21.30;6.15;;;;;;;24.61;52.19;95740.75;4911844;29;20709;-88
2022/10/29 07:14:17;;;;;;;13.07;5.95;;;;;;;24.57;50.97;95721.22;4904100;29;20282;-90
2022/10/29 07:16:45;;;;;;;11.02;5.82;;;;;;;24.67;50.85;95729.47;4919115;29;20216;-89
2022/10/29 07:19:12;;;;;;;10.88;5.25;;;;;;;24.89;51.83;95750.22;4920010;29;20299;-84
2022/10/29 07:21:41;;;;;;;16.02;7.68;;;;;;;24.97;51.61;95755.25;4915809;29;20306;-81
2022/10/29 07:24:09;;;;;;;12.25;5.78;;;;;;;25.16;50.96;95756.28;4926230;29;20218;-85
2022/10/29 07:26:41;;;;;;;16.33;5.57;;;;;;;25.31;51.26;95743.00;4923612;29;20198;-83
2022/10/29 07:29:10;;;;;;;10.70;6.05;;;;;;;25.75;51.18;95774.53;4929249;29;20168;-85
2022/10/29 07:31:37;;;;;;;12.73;5.47;;;;;;;26.06;50.64;95761.75;4930631;29;20289;-81
2022/10/29 07:34:05;;;;;;;7.75;5.15;;;;;;;26.11;50.22;95725.22;4905147;29;20234;-80
2022/10/29 07:36:33;;;;;;;8.48;5.50;;;;;;;26.64;49.92;95756.44;4901278;29;20232;-84
2022/10/29 07:39:01;;;;;;;6.22;4.68;;;;;;;26.90;49.91;95758.06;4901608;29;20208;-84
2022/10/29 07:41:28;;;;;;;13.30;5.78;;;;;;;27.09;49.18;95748.44;4903714;29;20656;-83
2022/10/29 07:43:57;;;;;;;14.55;6.18;;;;;;;27.32;49.00;95746.03;4904872;29;20203;-83
2022/10/29 07:46:23;;;;;;;10.40;5.25;;;;;;;27.30;48.58;95711.31;4909755;29;20204;-84
2022/10/29 07:48:50;;;;;;;9.60;5.30;;;;;;;27.69;47.95;95743.44;4910024;29;20197;-83
2022/10/29 07:51:17;;;;;;;7.18;5.53;;;;;;;27.71;47.72;95746.66;4907232;29;20197;-84
2022/10/29 07:53:44;;;;;;;8.35;5.57;;;;;;;27.67;48.04;95750.72;4897791;29;20199;-81
2022/10/29 07:56:11;;;;;;;7.45;5.38;;;;;;;27.50;48.56;95746.06;4897607;29;20228;-85
2022/10/29 07:58:38;;;;;;;12.88;6.68;;;;;;;27.36;48.27;95743.78;4897974;29;20585;-85
2022/10/29 08:01:06;;;;;;;12.52;5.90;;;;;;;27.08;48.07;95738.97;4899541;29;20203;-84
2022/10/29 08:03:33;;;;;;;10.95;5.97;;;;;;;26.82;48.32;95734.72;4901274;29;20184;-81
2022/10/29 08:06:00;;;;;;;9.60;5.75;;;;;;;26.62;47.88;95734.84;4897614;29;20214;-84
2022/10/29 08:08:26;;;;;;;9.65;6.30;;;;;;;26.46;48.06;95749.28;4897237;29;20193;-86
2022/10/29 08:10:53;;;;;;;10.55;7.00;;;;;;;26.17;47.87;95740.13;4897403;29;20196;-84
2022/10/29 08:13:20;;;;;;;12.65;5.97;;;;;;;25.93;47.64;95739.03;4896835;29;20580;-81
2022/10/29 08:15:47;;;;;;;9.43;6.15;;;;;;;25.70;47.76;95739.47;4899887;29;20193;-81
2022/10/29 08:18:17;;;;;;;13.45;6.30;;;;;;;25.46;47.57;95741.75;4912821;29;20192;-80
2022/10/29 08:20:45;;;;;;;11.48;6.00;;;;;;;25.23;47.72;95730.91;4911790;29;20209;-84
2022/10/29 08:23:12;;;;;;;8.80;6.60;;;;;;;24.98;47.98;95720.22;4907475;29;20196;-84
2022/10/29 08:25:41;;;;;;;9.80;6.68;;;;;;;24.78;47.96;95723.66;4901082;29;20196;-84
2022/10/29 08:28:10;;;;;;;12.77;7.25;;;;;;;24.60;47.67;95728.66;4899167;29;20271;-85
2022/10/29 08:30:37;;;;;;;7.55;6.07;;;;;;;24.21;47.92;95693.56;4897651;29;20199;-84
2022/10/29 08:33:04;;;;;;;11.02;6.47;;;;;;;24.20;47.81;95718.09;4900065;29;20207;-82
2022/10/29 08:35:33;;;;;;;13.18;7.25;;;;;;;23.84;47.88;95686.22;4911971;29;20200;-84
2022/10/29 08:38:00;;;;;;;11.88;7.28;;;;;;;23.87;48.28;95722.41;4917098;29;20224;-81
2022/10/29 08:40:30;;;;;;;9.85;6.50;;;;;;;23.74;47.93;95723.16;4909819;29;20231;-82
2022/10/29 08:43:41;;;;;;;13.93;6.40;;;;;;;23.57;48.09;95721.81;4916276;29;20197;-80
2022/10/29 08:46:20;;;;;;;9.07;6.13;;;;;;;23.39;48.29;95724.94;4907925;29;20204;-85
2022/10/29 08:48:52;;;;;;;9.68;6.40;;;;;;;23.23;47.99;95720.84;4898276;29;20219;-84
2022/10/29 08:51:24;;;;;;;13.63;6.72;;;;;;;23.06;48.70;95707.28;4896365;29;20203;-82
2022/10/29 08:53:53;;;;;;;11.65;7.03;;;;;;;22.98;48.59;95703.00;4895883;29;20683;-82
2022/10/29 08:56:22;;;;;;;14.85;6.65;;;;;;;22.78;48.64;95683.75;4895969;29;20239;-80
2022/10/29 08:58:57;;;;;;;7.32;5.88;;;;;;;22.65;48.71;95675.81;4896387;29;20267;-81
2022/10/29 09:01:24;;;;;;;7.25;5.90;;;;;;;22.68;48.54;95697.13;4895450;29;20200;-81
2022/10/29 09:03:52;;;;;;;9.25;6.20;;;;;;;22.60;48.66;95702.47;4896359;29;20214;-81
2022/10/29 09:06:28;;;;;;;7.97;5.82;;;;;;;22.46;48.67;95691.13;4895537;29;20205;-82
2022/10/29 09:09:09;;;;;;;12.65;6.20;;;;;;;22.43;48.90;95693.28;4895587;29;20192;-81
2022/10/29 09:11:57;;;;;;;8.60;5.68;;;;;;;22.35;49.07;95698.63;4895965;29;20559;-82
2022/10/29 09:14:40;;;;;;;9.40;5.30;;;;;;;22.27;49.01;95702.16;4895948;29;20595;-81
2022/10/29 09:17:22;;;;;;;10.38;5.93;;;;;;;22.16;49.29;95685.22;4895917;29;20220;-81
2022/10/29 09:20:04;;;;;;;9.15;5.57;;;;;;;21.93;49.18;95659.28;4895501;29;20205;-83
2022/10/29 09:22:41;;;;;;;10.07;5.70;;;;;;;21.84;49.32;95649.97;4895475;29;20656;-80
2022/10/29 09:25:17;;;;;;;9.43;5.30;;;;;;;21.89;49.63;95668.47;4898960;29;20200;-82
2022/10/29 09:28:00;;;;;;;11.70;6.30;;;;;;;21.67;49.62;95627.75;4898826;29;20723;-80
2022/10/29 09:30:30;;;;;;;11.43;6.00;;;;;;;22.00;49.55;95680.19;4899339;29;20231;-82
2022/10/29 09:33:00;;;;;;;7.65;5.57;;;;;;;21.83;49.72;95656.19;4898293;29;20192;-81
2022/10/29 09:35:38;;;;;;;10.45;5.93;;;;;;;21.88;49.63;95666.84;4898382;29;20541;-82
2022/10/29 09:38:16;;;;;;;8.32;5.38;;;;;;;21.72;49.76;95644.44;4898694;29;20220;-82
2022/10/29 09:40:43;;;;;;;9.10;5.70;;;;;;;21.92;49.89;95672.50;4898347;29;20232;-81
2022/10/29 09:43:19;;;;;;;8.50;6.35;;;;;;;21.89;49.91;95667.66;4898494;29;20211;-83
2022/10/29 09:45:53;;;;;;;10.18;6.20;;;;;;;21.81;49.62;95654.75;4898657;29;20200;-81
2022/10/29 09:48:24;;;;;;;8.20;6.70;;;;;;;21.81;49.77;95649.56;4898561;29;20227;-82
2022/10/29 09:50:58;;;;;;;9.43;6.43;;;;;;;21.92;49.87;95667.28;4898969;29;20212;-83
2022/10/29 09:53:26;;;;;;;8.18;6.18;;;;;;;21.91;49.70;95653.47;4897962;29;20207;-80
2022/10/29 09:55:56;;;;;;;9.55;5.80;;;;;;;21.93;49.92;95658.47;4898554;29;20276;-82
2022/10/29 09:58:25;;;;;;;10.00;5.47;;;;;;;21.85;49.88;95635.97;4898699;29;20225;-83
2022/10/29 10:00:52;;;;;;;6.82;5.28;;;;;;;21.97;49.97;95647.50;4898196;29;20621;-84
2022/10/29 10:03:25;;;;;;;9.70;5.97;;;;;;;21.99;49.87;95644.72;4898954;29;20188;-86
2022/10/29 10:06:01;;;;;;;7.63;5.63;;;;;;;22.01;50.03;95638.31;4899554;29;20351;-85
2022/10/29 10:08:30;;;;;;;11.43;5.80;;;;;;;22.03;49.95;95627.75;4898312;29;20228;-85
2022/10/29 10:10:59;;;;;;;6.20;5.18;;;;;;;22.05;49.86;95631.75;4898865;29;20189;-85
2022/10/29 10:13:28;;;;;;;10.23;6.22;;;;;;;22.02;49.92;95613.06;4881702;29;20193;-81
2022/10/29 10:15:57;;;;;;;5.68;5.07;;;;;;;22.10;49.68;95615.56;4899270;29;20226;-83
2022/10/29 10:18:26;;;;;;;6.65;5.10;;;;;;;22.09;49.69;95613.97;4902671;29;20231;-81
2022/10/29 10:21:06;;;;;;;7.65;5.13;;;;;;;22.15;49.50;95604.59;4915066;29;20230;-82
2022/10/29 10:23:46;;;;;;;12.52;5.00;;;;;;;21.93;49.63;95565.50;4905294;29;20196;-83
2022/10/29 10:26:32;;;;;;;7.95;4.97;;;;;;;22.18;50.04;95593.81;4903284;29;20211;-82
2022/10/29 10:29:21;;;;;;;8.20;5.63;;;;;;;22.17;50.01;95587.00;4899932;29;20193;-86
2022/10/29 10:31:49;;;;;;;6.28;4.80;;;;;;;22.22;49.73;95587.25;4858511;29;20197;-82
2022/10/29 10:34:18;;;;;;;7.15;4.50;;;;;;;22.22;49.81;95588.03;4858249;29;20222;-84
2022/10/29 10:36:49;;;;;;;8.27;5.00;;;;;;;22.22;49.76;95582.03;4857795;29;20230;-83
2022/10/29 10:39:30;;;;;;;6.30;4.40;;;;;;;22.27;49.59;95579.66;4858483;29;20578;-83
2022/10/29 10:42:00;;;;;;;8.23;5.25;;;;;;;22.28;49.86;95571.69;4857677;29;20225;-86
2022/10/29 10:44:27;;;;;;;5.05;4.60;;;;;;;22.30;49.76;95568.88;4857830;29;20193;-84
2022/10/29 10:46:57;;;;;;;7.72;4.25;;;;;;;22.31;49.60;95567.88;4857774;29;20190;-84
2022/10/29 10:49:31;;;;;;;5.28;4.43;;;;;;;22.34;49.72;95567.50;4858729;29;20194;-82
2022/10/29 10:52:00;;;;;;;5.47;4.05;;;;;;;22.36;49.56;95557.69;4858126;29;20611;-83
2022/10/29 10:54:32;;;;;;;7.30;4.22;;;;;;;22.33;49.94;95554.66;4858163;29;20691;-85
2022/10/29 10:57:01;;;;;;;6.78;4.75;;;;;;;22.26;49.73;95529.34;4858048;29;20221;-85
2022/10/29 10:59:42;;;;;;;5.55;4.07;;;;;;;22.25;49.61;95527.75;4858338;29;20681;-86
2022/10/29 11:02:20;;;;;;;5.63;4.00;;;;;;;22.45;49.97;95548.75;4858520;29;20333;-82
2022/10/29 11:04:50;;;;;;;7.38;4.00;;;;;;;22.47;49.67;95548.53;4857575;29;20198;-81
2022/10/29 11:07:17;;;;;;;6.85;3.92;;;;;;;22.49;50.07;95541.31;4857908;29;20204;-85
2022/10/29 11:09:50;;;;;;;5.10;3.90;;;;;;;22.50;50.10;95535.94;4878015;29;20219;-84
2022/10/29 11:12:27;;;;;;;5.43;3.78;;;;;;;22.52;49.73;95531.31;4879689;29;20208;-85
2022/10/29 11:15:00;;;;;;;6.45;3.83;;;;;;;22.52;49.73;95533.13;4879452;29;20902;-84
2022/10/29 11:17:30;;;;;;;5.25;3.58;;;;;;;22.54;49.66;95526.75;4879810;29;20685;-86
2022/10/29 11:20:00;;;;;;;3.50;3.20;;;;;;;22.46;49.68;95500.81;4880237;29;20193;-85
2022/10/29 11:22:33;;;;;;;4.20;3.40;;;;;;;22.57;49.52;95509.88;4879347;29;20197;-83
2022/10/29 11:25:08;;;;;;;7.05;3.63;;;;;;;22.58;49.57;95505.47;4878972;29;20240;-85
2022/10/29 11:27:44;;;;;;;5.25;4.03;;;;;;;22.59;49.38;95504.50;4878710;29;20283;-82
2022/10/29 11:30:13;;;;;;;5.50;4.13;;;;;;;22.60;49.84;95501.69;4878999;29;20196;-83
2022/10/29 11:32:52;;;;;;;6.80;3.70;;;;;;;22.61;49.81;95500.69;4879041;29;20208;-83
2022/10/29 11:35:30;;;;;;;5.75;3.95;;;;;;;22.55;49.89;95483.22;4879281;29;20201;-82
2022/10/29 11:38:01;;;;;;;7.45;4.05;;;;;;;22.59;49.84;95489.66;4878639;29;20228;-84
2022/10/29 11:40:37;;;;;;;4.15;3.60;;;;;;;22.60;49.90;95480.84;4882200;29;20228;-82
2022/10/29 11:43:10;;;;;;;6.82;3.50;;;;;;;22.43;49.74;95451.66;4898112;29;20200;-82
2022/10/29 11:45:51;;;;;;;4.38;3.65;;;;;;;22.64;49.76;95492.50;4899630;29;20256;-83